Latest METARs, TAFs and NOTAMs for EGSS


---------------------------------------------------------------------------
	(OBSERVATIONS)
EGSS 171420Z AUTO 21012KT 9999 NCD 14/07 Q1014=
EGSS 171350Z AUTO 20014KT 9999 NCD 14/06 Q1014=
EGSS 171320Z AUTO 21014KT 9999 NCD 14/06 Q1014=
EGSS 171250Z AUTO 21014KT 9999 NCD 13/06 Q1014=
EGSS 171220Z AUTO 18014KT 9999 NCD 12/06 Q1014=
EGSS 171150Z AUTO 18013KT 9999 NCD 12/06 Q1014=
---------------------------------------------------------------------------
	(FC)
Sorry, FC For EGSS Not Found
---------------------------------------------------------------------------
	(TERMINAL AREA FORECAST)
EGSS 171102Z 1712/1818 19010KT 9999 FEW025
    TEMPO 1715/1818 7000 -RADZ BKN013
    PROB30 TEMPO 1805/1810 BKN005
    PROB40 TEMPO 1813/1818 4000 RA SHRA=
---------------------------------------------------------------------------
	(NOTAMS)


EGSS A0408/19 TAXIWAY CHARLIE LINK CLOSED. 11 FEB 09:00 2019
    UNTIL 22 FEB 23:59 2019. CREATED: 10 FEB 22:35 2019

EGSS A0419/19 RED OBSTRUCTION LIGHT IS U/S ON THE DIAMOND HANGAR
    HELICOPTER VRP. 12 FEB 08:00 2019 UNTIL 12 MAY 23:59 2019.
    CREATED: 12 FEB 08:06 2019

EGSS A0426/19 RWY 04/22 CLOSED DUE WIP. 18 FEB 01:25 2019 UNTIL
    18 FEB 05:30 2019. CREATED: 12 FEB 15:00 2019

EGSS A0430/19 RWY 04/22 CLOSED DUE WIP. SUN MON 0015-0445, 07
    APR 00:15 2019 UNTIL 15 APR 04:45 2019. CREATED: 12 FEB 16:45
    2019

EGSS A0431/19 RWY 04/22 CLOSED DUE WIP. 0015-0445, 28 APR 00:15
    2019 UNTIL 29 APR 04:45 2019. CREATED: 12 FEB 16:46 2019

EGSS A4041/18 TAXIWAY ECHO EAST LINE CLOSED TO ALL TRAFFIC. TAXIWAY
    ECHO MIDDLE LINE IS RESTRICTED TO MAXIMUM CODE E TRAFFIC.
    17 DEC 12:00 2018 UNTIL 16 MAR 12:00 2019. CREATED: 17 DEC
    12:00 2018

EGSS H0459/19 SEARCHLIGHT DISPLAY WI 1NM RADIUS 515010N 0003635E
    (BRAINTREE, ESSEX). FOR INFO 07907 594307. 2019-05-0032/
    AS2. SFC - UNL, 0800-2230, 10 MAY 08:00 2019 UNTIL 12 MAY
    22:30 2019. CREATED: 13 FEB 11:53 2019

---------------------------------------------------------------------------